createdAt,value
2023-05-16T00:02:12.598Z,9.67
2023-05-16T00:04:40.148Z,9.42
2023-05-16T00:07:07.903Z,9.32
2023-05-16T00:09:36.781Z,10.07
2023-05-16T00:12:04.693Z,9.93
2023-05-16T00:14:32.165Z,10.10
2023-05-16T00:16:59.698Z,9.20
2023-05-16T00:19:27.665Z,9.07
2023-05-16T00:21:55.121Z,9.59
2023-05-16T00:24:22.641Z,9.20
2023-05-16T00:26:51.445Z,9.84
2023-05-16T00:29:18.918Z,9.12
2023-05-16T00:31:46.430Z,9.87
2023-05-16T00:34:14.063Z,9.89
2023-05-16T00:36:41.581Z,10.14
2023-05-16T00:39:11.495Z,9.36
2023-05-16T00:41:39.072Z,9.55
2023-05-16T00:44:07.968Z,9.06
2023-05-16T00:46:35.811Z,10.56
2023-05-16T00:49:03.528Z,10.53
2023-05-16T00:51:31.310Z,10.18
2023-05-16T00:53:59.502Z,10.61
2023-05-16T00:56:27.189Z,9.56
2023-05-16T00:58:54.937Z,10.10
2023-05-16T01:01:25.250Z,9.23
2023-05-16T01:03:53.084Z,10.11
2023-05-16T01:06:20.988Z,9.77
2023-05-16T01:08:48.446Z,9.45
2023-05-16T01:11:23.743Z,9.18
2023-05-16T01:13:57.876Z,9.33
2023-05-16T01:16:32.133Z,9.77
2023-05-16T01:19:09.141Z,9.68
2023-05-16T01:21:44.215Z,10.10
2023-05-16T01:24:16.108Z,9.78
2023-05-16T01:26:45.921Z,9.13
2023-05-16T01:29:13.664Z,9.17
2023-05-16T01:31:41.178Z,9.27
2023-05-16T01:34:09.778Z,9.16
2023-05-16T01:36:41.427Z,9.01
2023-05-16T01:39:14.009Z,9.03
2023-05-16T01:41:48.664Z,9.12
2023-05-16T01:44:20.089Z,9.13
2023-05-16T01:46:48.817Z,9.19
2023-05-16T01:49:18.261Z,9.34
2023-05-16T01:51:51.784Z,9.12
2023-05-16T01:54:20.568Z,9.27
2023-05-16T01:56:53.640Z,9.31
2023-05-16T01:59:22.273Z,9.28
2023-05-16T02:01:49.760Z,9.32
2023-05-16T02:04:17.304Z,9.44
2023-05-16T02:06:45.378Z,9.49
2023-05-16T02:09:12.869Z,9.47
2023-05-16T02:11:40.448Z,9.48
2023-05-16T02:14:09.843Z,9.81
2023-05-16T02:16:38.808Z,9.68
2023-05-16T02:19:06.512Z,9.76
2023-05-16T02:21:34.051Z,9.52
2023-05-16T02:24:01.710Z,9.73
2023-05-16T02:26:29.189Z,9.70
2023-05-16T02:28:56.711Z,9.72
2023-05-16T02:31:29.353Z,9.87
2023-05-16T02:33:56.795Z,9.36
2023-05-16T02:36:24.315Z,9.36
2023-05-16T02:38:51.849Z,9.43
2023-05-16T02:41:19.354Z,9.32
2023-05-16T02:43:47.228Z,9.51
2023-05-16T02:46:22.256Z,9.52
2023-05-16T02:48:51.728Z,9.45
2023-05-16T02:51:19.900Z,9.30
2023-05-16T02:53:47.498Z,9.19
2023-05-16T02:56:14.978Z,9.16
2023-05-16T02:58:42.762Z,9.81
2023-05-16T03:01:10.487Z,9.44
2023-05-16T03:03:38.462Z,9.28
2023-05-16T03:06:07.632Z,9.18
2023-05-16T03:08:35.202Z,9.68
2023-05-16T03:11:02.712Z,9.45
2023-05-16T03:13:30.679Z,9.40
2023-05-16T03:15:58.274Z,9.28
2023-05-16T03:18:25.919Z,9.06
2023-05-16T03:20:54.037Z,9.12
2023-05-16T03:23:22.973Z,9.56
2023-05-16T03:25:50.676Z,9.48
2023-05-16T03:28:18.867Z,9.65
2023-05-16T03:30:46.343Z,9.37
2023-05-16T03:33:13.865Z,9.36
2023-05-16T03:35:41.562Z,9.51
2023-05-16T03:38:09.313Z,9.22
2023-05-16T03:40:38.223Z,9.45
2023-05-16T03:43:05.770Z,9.68
2023-05-16T03:45:33.461Z,9.52
2023-05-16T03:48:01.475Z,9.34
2023-05-16T03:50:28.956Z,9.40
2023-05-16T03:52:56.743Z,9.47
2023-05-16T03:55:24.336Z,9.40
2023-05-16T03:57:53.328Z,9.33
2023-05-16T04:00:20.855Z,9.24
2023-05-16T04:02:48.496Z,9.35
2023-05-16T04:05:16.488Z,9.23
2023-05-16T04:07:44.005Z,9.28
2023-05-16T04:10:12.369Z,9.38
2023-05-16T04:12:39.853Z,9.39
2023-05-16T04:15:09.611Z,9.56
2023-05-16T04:17:37.360Z,9.41
2023-05-16T04:20:05.397Z,9.38
2023-05-16T04:22:32.867Z,9.80
2023-05-16T04:25:00.625Z,9.61
2023-05-16T04:27:28.972Z,9.34
2023-05-16T04:29:56.586Z,9.53
2023-05-16T04:32:25.388Z,9.69
2023-05-16T04:34:53.397Z,9.64
2023-05-16T04:37:21.032Z,9.54
2023-05-16T04:39:48.561Z,9.94
2023-05-16T04:42:16.409Z,9.79
2023-05-16T04:44:44.054Z,10.16
2023-05-16T04:47:11.629Z,9.54
2023-05-16T04:49:40.477Z,9.41
2023-05-16T04:52:09.096Z,9.85
2023-05-16T04:54:36.732Z,9.73
2023-05-16T04:57:04.503Z,9.70
2023-05-16T04:59:32.024Z,9.94
2023-05-16T05:01:59.513Z,9.98
2023-05-16T05:04:27.028Z,10.35
2023-05-16T05:06:55.869Z,9.84
2023-05-16T05:09:23.411Z,10.17
2023-05-16T05:11:51.132Z,9.58
2023-05-16T05:14:18.630Z,9.84
2023-05-16T05:16:46.110Z,9.62
2023-05-16T05:19:13.684Z,9.68
2023-05-16T05:21:41.180Z,9.97
2023-05-16T05:24:10.451Z,9.45
2023-05-16T05:26:38.062Z,9.72
2023-05-16T05:29:06.212Z,9.88
2023-05-16T05:31:34.955Z,9.27
2023-05-16T05:34:02.752Z,9.37
2023-05-16T05:36:31.007Z,9.28
2023-05-16T05:38:58.694Z,9.30
2023-05-16T05:41:27.735Z,9.45
2023-05-16T05:43:55.195Z,9.32
2023-05-16T05:46:22.749Z,9.68
2023-05-16T05:48:50.496Z,9.81
2023-05-16T05:51:18.069Z,9.79
2023-05-16T05:53:45.710Z,9.57
2023-05-16T05:56:13.223Z,9.72
2023-05-16T05:58:42.442Z,9.64
2023-05-16T06:01:09.989Z,9.96
2023-05-16T06:03:37.494Z,10.00
2023-05-16T06:06:05.840Z,9.95
2023-05-16T06:08:34.117Z,9.94
2023-05-16T06:11:02.034Z,9.87
2023-05-16T06:13:29.549Z,10.60
2023-05-16T06:15:58.548Z,10.36
2023-05-16T06:18:26.023Z,10.22
2023-05-16T06:20:54.050Z,10.45
2023-05-16T06:23:21.958Z,10.76
2023-05-16T06:25:49.556Z,10.60
2023-05-16T06:28:17.031Z,10.82
2023-05-16T06:30:44.592Z,11.36
2023-05-16T06:33:13.384Z,10.57
2023-05-16T06:35:40.896Z,10.54
2023-05-16T06:38:08.361Z,10.94
2023-05-16T06:40:36.302Z,10.78
2023-05-16T06:43:03.902Z,10.65
2023-05-16T06:45:31.416Z,10.80
2023-05-16T06:47:58.944Z,10.60
2023-05-16T06:50:28.000Z,10.59
2023-05-16T06:52:55.617Z,10.69
2023-05-16T06:55:23.392Z,10.41
2023-05-16T06:57:50.926Z,10.12
2023-05-16T07:00:19.599Z,10.50
2023-05-16T07:02:47.224Z,10.15
2023-05-16T07:05:14.812Z,10.43
2023-05-16T07:07:43.683Z,10.50
2023-05-16T07:10:12.285Z,10.35
2023-05-16T07:12:42.718Z,10.28
2023-05-16T07:15:11.431Z,10.90
2023-05-16T07:17:38.992Z,11.14
2023-05-16T07:20:08.230Z,10.07
2023-05-16T07:22:36.274Z,10.14
2023-05-16T07:25:05.885Z,10.07
2023-05-16T07:27:33.630Z,10.50
2023-05-16T07:30:01.132Z,11.17
2023-05-16T07:32:28.682Z,10.25
2023-05-16T07:34:56.220Z,10.52
2023-05-16T07:37:24.148Z,10.38
2023-05-16T07:39:51.778Z,9.98
2023-05-16T07:42:20.726Z,9.81
2023-05-16T07:44:48.442Z,9.84
2023-05-16T07:47:15.998Z,9.77
2023-05-16T07:49:43.503Z,9.17
2023-05-16T07:52:11.147Z,9.52
2023-05-16T07:54:38.999Z,9.73
2023-05-16T07:57:07.333Z,10.15
2023-05-16T07:59:36.245Z,10.23
2023-05-16T08:02:03.869Z,9.66
2023-05-16T08:04:31.412Z,9.96
2023-05-16T08:06:58.943Z,10.20
2023-05-16T08:09:26.588Z,10.43
2023-05-16T08:11:54.454Z,10.32
2023-05-16T08:14:21.990Z,10.35
2023-05-16T08:16:51.069Z,10.58
2023-05-16T08:19:18.686Z,10.69
2023-05-16T08:21:46.287Z,10.76
2023-05-16T08:24:14.083Z,11.08
2023-05-16T08:26:41.623Z,10.93
2023-05-16T08:29:09.156Z,10.94
2023-05-16T08:31:36.745Z,11.42
2023-05-16T08:34:06.509Z,10.85
2023-05-16T08:36:35.387Z,10.91
2023-05-16T08:39:03.448Z,10.92
2023-05-16T08:41:31.453Z,11.94
2023-05-16T08:43:59.056Z,11.01
2023-05-16T08:46:26.946Z,11.78
2023-05-16T08:48:55.090Z,11.80
2023-05-16T08:51:26.656Z,11.38
2023-05-16T08:53:58.702Z,10.91
2023-05-16T08:56:26.587Z,11.65
2023-05-16T08:58:55.285Z,11.24
2023-05-16T09:01:23.682Z,11.25
2023-05-16T09:03:51.553Z,11.49
2023-05-16T09:06:19.635Z,11.78
2023-05-16T09:08:49.441Z,11.79
2023-05-16T09:11:17.144Z,11.54
2023-05-16T09:13:44.801Z,12.36
2023-05-16T09:16:13.801Z,11.73
2023-05-16T09:18:42.515Z,11.26
2023-05-16T09:21:11.330Z,11.43
2023-05-16T09:23:39.288Z,11.84
2023-05-16T09:26:08.885Z,11.65
2023-05-16T09:28:38.770Z,11.51
2023-05-16T09:31:20.879Z,12.61
2023-05-16T09:33:48.996Z,12.22
2023-05-16T09:36:16.800Z,13.51
2023-05-16T09:38:44.395Z,13.76
2023-05-16T09:41:13.607Z,13.05
2023-05-16T09:43:43.007Z,14.54
2023-05-16T09:46:14.143Z,13.24
2023-05-16T09:48:42.825Z,13.70
2023-05-16T09:51:10.690Z,13.74
2023-05-16T09:53:39.612Z,13.67
2023-05-16T09:56:08.582Z,13.14
2023-05-16T09:58:39.265Z,12.56
2023-05-16T10:01:07.803Z,12.59
2023-05-16T10:03:36.294Z,13.41
2023-05-16T10:06:07.892Z,13.50
2023-05-16T10:08:37.098Z,13.82
2023-05-16T10:11:05.860Z,13.39
2023-05-16T10:13:35.176Z,13.90
2023-05-16T10:16:08.659Z,13.60
2023-05-16T10:18:37.501Z,13.16
2023-05-16T10:21:08.317Z,12.96
2023-05-16T10:23:39.314Z,13.54
2023-05-16T10:26:07.244Z,13.35
2023-05-16T10:28:35.674Z,14.16
2023-05-16T10:31:04.724Z,14.11
2023-05-16T10:33:32.464Z,14.64
2023-05-16T10:36:00.061Z,13.69
2023-05-16T10:38:27.760Z,15.90
2023-05-16T10:40:55.749Z,15.71
2023-05-16T10:43:27.358Z,14.36
2023-05-16T10:45:56.240Z,13.93
2023-05-16T10:48:32.048Z,14.40
2023-05-16T10:50:59.758Z,13.60
2023-05-16T10:53:37.243Z,16.03
2023-05-16T10:56:09.921Z,14.83
2023-05-16T10:58:44.513Z,15.48
2023-05-16T11:01:20.606Z,14.53
2023-05-16T11:04:07.029Z,14.75
2023-05-16T11:06:35.785Z,15.93
2023-05-16T11:09:09.807Z,15.21
2023-05-16T11:11:41.989Z,13.65
2023-05-16T11:14:09.908Z,14.40
2023-05-16T11:16:37.572Z,15.26
2023-05-16T11:19:09.623Z,15.40
2023-05-16T11:22:05.743Z,14.69
2023-05-16T11:24:33.408Z,15.99
2023-05-16T11:27:01.344Z,14.51
2023-05-16T11:29:29.907Z,13.77
2023-05-16T11:31:59.492Z,14.61
2023-05-16T11:34:28.519Z,14.53
2023-05-16T11:36:56.550Z,15.72
2023-05-16T11:39:25.389Z,14.78
2023-05-16T11:41:53.089Z,15.07
2023-05-16T11:44:20.678Z,14.65
2023-05-16T11:46:48.249Z,14.31
2023-05-16T11:49:15.834Z,14.57
2023-05-16T11:51:44.740Z,15.17
2023-05-16T11:54:13.018Z,13.70
2023-05-16T11:56:41.317Z,14.47
2023-05-16T11:59:09.354Z,13.72
2023-05-16T12:01:38.227Z,14.24
2023-05-16T12:04:09.958Z,14.53
2023-05-16T12:06:37.951Z,15.20
2023-05-16T12:09:10.605Z,17.72
2023-05-16T12:11:38.252Z,16.06
2023-05-16T12:14:06.026Z,16.25
2023-05-16T12:16:34.265Z,15.98
2023-05-16T12:19:02.598Z,15.61
2023-05-16T12:21:30.157Z,18.07
2023-05-16T12:23:58.514Z,15.93
2023-05-16T12:26:30.846Z,16.96
2023-05-16T12:29:00.762Z,18.02
2023-05-16T12:31:32.169Z,19.16
2023-05-16T12:33:59.962Z,19.96
2023-05-16T12:36:27.506Z,16.77
2023-05-16T12:38:55.018Z,16.10
2023-05-16T12:41:23.572Z,16.32
2023-05-16T12:43:52.478Z,17.28
2023-05-16T12:46:20.879Z,18.16
2023-05-16T12:48:48.430Z,17.85
2023-05-16T12:51:17.714Z,16.50
2023-05-16T12:53:57.714Z,17.38
2023-05-16T12:56:33.479Z,17.92
2023-05-16T12:59:02.512Z,16.75
2023-05-16T13:01:30.032Z,18.22
2023-05-16T13:03:58.043Z,18.22
2023-05-16T13:06:26.699Z,17.02
2023-05-16T13:08:54.238Z,17.10
2023-05-16T13:11:21.961Z,15.90
2023-05-16T13:13:49.557Z,18.71
2023-05-16T13:16:18.470Z,17.92
2023-05-16T13:18:46.125Z,17.62
2023-05-16T13:21:13.849Z,16.47
2023-05-16T13:23:41.428Z,17.91
2023-05-16T13:26:09.631Z,17.69
2023-05-16T13:28:37.685Z,17.27
2023-05-16T13:31:05.640Z,19.27
2023-05-16T13:33:36.196Z,17.46
2023-05-16T13:36:03.922Z,19.42
2023-05-16T13:38:31.440Z,18.62
2023-05-16T13:40:58.987Z,19.78
2023-05-16T13:43:26.620Z,17.91
2023-05-16T13:45:54.238Z,16.85
2023-05-16T13:48:21.984Z,16.52
2023-05-16T13:50:51.986Z,16.92
2023-05-16T13:53:19.528Z,15.89
2023-05-16T13:55:47.119Z,16.43
2023-05-16T13:58:14.732Z,16.26
2023-05-16T14:00:45.697Z,16.09
2023-05-16T14:03:13.926Z,15.80
2023-05-16T14:05:41.542Z,16.64
2023-05-16T14:08:10.458Z,16.90
2023-05-16T14:10:37.989Z,18.81
2023-05-16T14:13:06.039Z,16.31
2023-05-16T14:15:33.635Z,16.49
2023-05-16T14:18:01.165Z,15.98
2023-05-16T14:20:28.699Z,19.07
2023-05-16T14:22:56.776Z,18.77
2023-05-16T14:25:25.828Z,19.52
2023-05-16T14:27:53.469Z,19.01
2023-05-16T14:30:21.038Z,15.89
2023-05-16T14:32:48.629Z,17.07
2023-05-16T14:35:17.336Z,16.48
2023-05-16T14:37:44.917Z,17.23
2023-05-16T14:40:13.135Z,16.28
2023-05-16T14:42:42.040Z,16.20
2023-05-16T14:45:10.801Z,17.26
2023-05-16T14:47:38.545Z,17.03
2023-05-16T14:50:07.194Z,16.68
2023-05-16T14:52:34.873Z,19.15
2023-05-16T14:55:02.473Z,18.31
2023-05-16T14:57:30.284Z,16.97
2023-05-16T14:59:59.440Z,17.99
2023-05-16T15:02:27.785Z,16.24
2023-05-16T15:04:55.732Z,17.11
2023-05-16T15:07:23.290Z,16.57
2023-05-16T15:09:50.815Z,15.74
2023-05-16T15:12:18.539Z,14.94
2023-05-16T15:14:46.040Z,16.73
2023-05-16T15:17:15.017Z,15.98
2023-05-16T15:19:42.531Z,16.36
2023-05-16T15:22:10.977Z,17.27
2023-05-16T15:24:38.584Z,16.57
2023-05-16T15:27:06.785Z,16.99
2023-05-16T15:29:34.407Z,17.66
2023-05-16T15:32:05.235Z,16.72
2023-05-16T15:34:35.673Z,15.79
2023-05-16T15:37:03.257Z,14.88
2023-05-16T15:39:30.779Z,15.02
2023-05-16T15:42:10.130Z,15.59
2023-05-16T15:44:38.725Z,14.20
2023-05-16T15:47:07.263Z,14.91
2023-05-16T15:49:36.167Z,15.11
2023-05-16T15:52:03.676Z,16.77
2023-05-16T15:54:31.446Z,15.41
2023-05-16T15:56:59.075Z,15.05
2023-05-16T15:59:26.660Z,15.32
2023-05-16T16:01:54.206Z,15.24
2023-05-16T16:04:23.382Z,14.75
2023-05-16T16:06:52.500Z,14.37
2023-05-16T16:09:20.080Z,16.13
2023-05-16T16:11:47.608Z,14.57
2023-05-16T16:14:15.140Z,15.03
2023-05-16T16:16:42.709Z,15.00
2023-05-16T16:19:10.307Z,15.18
2023-05-16T16:21:37.920Z,14.99
2023-05-16T16:24:07.441Z,14.86
2023-05-16T16:26:34.991Z,15.24
2023-05-16T16:29:02.513Z,15.69
2023-05-16T16:31:30.139Z,15.46
2023-05-16T16:33:57.692Z,14.63
2023-05-16T16:36:25.507Z,15.93
2023-05-16T16:38:53.035Z,15.92
2023-05-16T16:41:22.013Z,15.37
2023-05-16T16:43:49.703Z,16.45
2023-05-16T16:46:17.321Z,14.71
2023-05-16T16:48:44.865Z,14.11
2023-05-16T16:51:12.387Z,16.10
2023-05-16T16:53:40.993Z,17.23
2023-05-16T16:56:08.820Z,17.08
2023-05-16T16:58:37.948Z,16.36
2023-05-16T17:01:05.812Z,16.78
2023-05-16T17:03:33.456Z,17.34
2023-05-16T17:06:01.315Z,15.02
2023-05-16T17:08:28.842Z,14.85
2023-05-16T17:10:56.658Z,14.41
2023-05-16T17:13:24.335Z,14.39
2023-05-16T17:15:53.198Z,13.77
2023-05-16T17:18:21.772Z,13.08
2023-05-16T17:20:49.402Z,14.73
2023-05-16T17:23:16.974Z,14.02
2023-05-16T17:25:45.197Z,13.83
2023-05-16T17:28:12.755Z,13.71
2023-05-16T17:30:40.253Z,13.84
2023-05-16T17:33:09.413Z,14.02
2023-05-16T17:35:37.630Z,14.16
2023-05-16T17:38:05.177Z,13.38
2023-05-16T17:40:32.952Z,13.67
2023-05-16T17:43:00.704Z,13.38
2023-05-16T17:45:28.471Z,13.25
2023-05-16T17:47:59.459Z,13.00
2023-05-16T17:50:30.699Z,14.06
2023-05-16T17:52:58.740Z,14.00
2023-05-16T17:55:28.942Z,12.71
2023-05-16T17:57:56.641Z,13.42
2023-05-16T18:00:24.879Z,12.70
2023-05-16T18:02:52.984Z,13.59
2023-05-16T18:05:20.640Z,12.91
2023-05-16T18:07:49.771Z,13.71
2023-05-16T18:10:17.372Z,12.66
2023-05-16T18:12:47.991Z,12.34
2023-05-16T18:15:16.247Z,12.09
2023-05-16T18:17:45.167Z,12.44
2023-05-16T18:20:13.439Z,12.77
2023-05-16T18:22:43.670Z,11.84
2023-05-16T18:25:12.772Z,12.05
2023-05-16T18:27:40.915Z,12.47
2023-05-16T18:30:09.730Z,11.91
2023-05-16T18:32:37.546Z,12.31
2023-05-16T18:35:08.406Z,12.01
2023-05-16T18:37:36.452Z,12.05
2023-05-16T18:40:04.206Z,11.55
2023-05-16T18:42:33.043Z,11.59
2023-05-16T18:45:00.591Z,11.72
2023-05-16T18:47:28.311Z,11.00
2023-05-16T18:49:55.878Z,11.03
2023-05-16T18:52:23.397Z,11.82
2023-05-16T18:54:50.921Z,10.97
2023-05-16T18:57:18.654Z,11.87
2023-05-16T18:59:47.502Z,11.94
2023-05-16T19:02:15.047Z,11.76
2023-05-16T19:04:42.663Z,11.54
2023-05-16T19:07:10.671Z,11.22
2023-05-16T19:09:38.191Z,11.01
2023-05-16T19:12:06.653Z,11.98
2023-05-16T19:14:34.256Z,11.28
2023-05-16T19:17:04.058Z,11.26
2023-05-16T19:19:32.365Z,10.58
2023-05-16T19:22:00.086Z,11.35
2023-05-16T19:24:27.814Z,10.98
2023-05-16T19:26:55.331Z,11.62
2023-05-16T19:29:22.907Z,10.87
2023-05-16T19:31:50.483Z,11.72
2023-05-16T19:34:21.184Z,10.69
2023-05-16T19:36:48.768Z,11.36
2023-05-16T19:39:16.289Z,10.54
2023-05-16T19:41:43.857Z,11.27
2023-05-16T19:44:11.479Z,10.14
2023-05-16T19:46:39.226Z,10.76
2023-05-16T19:49:07.253Z,10.92
2023-05-16T19:51:41.957Z,10.38
2023-05-16T19:54:09.913Z,10.33
2023-05-16T19:56:37.469Z,10.05
2023-05-16T19:59:05.000Z,9.62
2023-05-16T20:01:32.810Z,10.22
2023-05-16T20:04:00.742Z,10.11
2023-05-16T20:06:28.349Z,9.17
2023-05-16T20:08:57.283Z,9.49
2023-05-16T20:11:24.896Z,9.63
2023-05-16T20:13:52.450Z,9.58
2023-05-16T20:16:20.624Z,9.35
2023-05-16T20:18:48.366Z,9.29
2023-05-16T20:21:15.900Z,9.66
2023-05-16T20:23:43.401Z,9.31
2023-05-16T20:26:14.663Z,8.77
2023-05-16T20:28:42.659Z,9.67
2023-05-16T20:31:10.243Z,8.86
2023-05-16T20:33:37.937Z,9.18
2023-05-16T20:36:05.739Z,9.99
2023-05-16T20:38:33.302Z,10.12
2023-05-16T20:41:03.191Z,9.42
2023-05-16T20:43:32.019Z,9.36
2023-05-16T20:45:59.556Z,9.28
2023-05-16T20:48:27.154Z,9.71
2023-05-16T20:50:56.234Z,9.31
2023-05-16T20:53:23.832Z,8.91
2023-05-16T20:55:51.361Z,8.63
2023-05-16T20:58:18.968Z,8.72
2023-05-16T21:00:47.836Z,8.97
2023-05-16T21:03:15.438Z,8.30
2023-05-16T21:05:43.101Z,8.38
2023-05-16T21:08:10.634Z,8.07
2023-05-16T21:10:38.494Z,7.87
2023-05-16T21:13:06.164Z,7.96
2023-05-16T21:15:33.705Z,8.06
2023-05-16T21:18:02.683Z,8.12
2023-05-16T21:20:30.673Z,7.90
2023-05-16T21:22:58.304Z,7.76
2023-05-16T21:25:25.904Z,8.40
2023-05-16T21:27:53.475Z,8.95
2023-05-16T21:30:21.087Z,8.09
2023-05-16T21:32:48.665Z,8.54
2023-05-16T21:35:17.631Z,8.46
2023-05-16T21:37:45.199Z,9.31
2023-05-16T21:40:18.778Z,8.81
2023-05-16T21:42:46.588Z,8.25
2023-05-16T21:45:16.507Z,8.14
2023-05-16T21:47:44.271Z,7.53
2023-05-16T21:50:12.136Z,7.50
2023-05-16T21:52:41.276Z,7.50
2023-05-16T21:55:09.895Z,7.69
2023-05-16T21:57:37.456Z,7.75
2023-05-16T22:00:09.172Z,7.89
2023-05-16T22:02:37.095Z,7.32
2023-05-16T22:05:05.839Z,7.35
2023-05-16T22:07:33.519Z,7.44
2023-05-16T22:10:02.981Z,7.68
2023-05-16T22:12:30.551Z,8.10
2023-05-16T22:14:58.439Z,7.78
2023-05-16T22:17:26.108Z,8.11
2023-05-16T22:19:54.067Z,7.83
2023-05-16T22:22:21.568Z,7.90
2023-05-16T22:24:49.111Z,7.55
2023-05-16T22:27:17.956Z,7.74
2023-05-16T22:29:45.545Z,7.98
2023-05-16T22:32:13.467Z,7.32
2023-05-16T22:34:40.982Z,7.34
2023-05-16T22:37:08.996Z,7.33
2023-05-16T22:39:36.679Z,7.18
2023-05-16T22:42:04.722Z,7.12
2023-05-16T22:44:33.599Z,7.55
2023-05-16T22:47:01.227Z,7.26
2023-05-16T22:49:28.780Z,6.84
2023-05-16T22:51:56.361Z,7.09
2023-05-16T22:54:24.250Z,7.72
2023-05-16T22:56:51.777Z,7.49
2023-05-16T22:59:19.288Z,7.10
2023-05-16T23:01:48.142Z,6.85
2023-05-16T23:04:16.060Z,7.53
2023-05-16T23:06:43.635Z,7.35
2023-05-16T23:09:11.186Z,7.61
2023-05-16T23:11:38.751Z,7.26
2023-05-16T23:14:06.284Z,7.29
2023-05-16T23:16:33.931Z,7.38
2023-05-16T23:19:02.800Z,7.48
2023-05-16T23:21:31.294Z,7.32
2023-05-16T23:23:58.825Z,7.36
2023-05-16T23:26:26.525Z,6.70
2023-05-16T23:28:54.061Z,6.89
2023-05-16T23:31:21.594Z,6.96
2023-05-16T23:33:49.323Z,6.45
2023-05-16T23:36:18.194Z,6.68
2023-05-16T23:38:45.733Z,7.16
2023-05-16T23:41:13.292Z,7.27
2023-05-16T23:43:40.987Z,7.17
2023-05-16T23:46:08.499Z,7.06
2023-05-16T23:48:36.804Z,7.47
2023-05-16T23:51:07.342Z,7.73
2023-05-16T23:53:36.242Z,7.28
2023-05-16T23:56:04.355Z,7.31
2023-05-16T23:58:31.909Z,7.42
